sensor_id;sensor_type;location;lat;lon;timestamp;P1;durP1;ratioP1;P2;durP2;ratioP2
38629;SDS011;24384;51.988;4.644;2024-03-07T00:00:57;43.33;;;28.52;;
38629;SDS011;24384;51.988;4.644;2024-03-07T00:03:33;40.47;;;25.83;;
38629;SDS011;24384;51.988;4.644;2024-03-07T00:06:09;38.72;;;26.48;;
38629;SDS011;24384;51.988;4.644;2024-03-07T00:08:45;41.28;;;26.35;;
38629;SDS011;24384;51.988;4.644;2024-03-07T00:11:21;41.40;;;26.50;;
38629;SDS011;24384;51.988;4.644;2024-03-07T00:13:57;43.65;;;26.73;;
38629;SDS011;24384;51.988;4.644;2024-03-07T00:16:43;42.65;;;25.75;;
38629;SDS011;24384;51.988;4.644;2024-03-07T00:19:22;44.33;;;25.10;;
38629;SDS011;24384;51.988;4.644;2024-03-07T00:21:57;45.28;;;28.40;;
38629;SDS011;24384;51.988;4.644;2024-03-07T00:24:34;43.10;;;27.35;;
38629;SDS011;24384;51.988;4.644;2024-03-07T00:27:12;37.88;;;25.00;;
38629;SDS011;24384;51.988;4.644;2024-03-07T00:29:53;45.20;;;27.20;;
38629;SDS011;24384;51.988;4.644;2024-03-07T00:32:29;39.17;;;24.95;;
38629;SDS011;24384;51.988;4.644;2024-03-07T00:35:06;45.88;;;27.10;;
38629;SDS011;24384;51.988;4.644;2024-03-07T00:37:45;40.42;;;25.25;;
38629;SDS011;24384;51.988;4.644;2024-03-07T00:40:16;47.70;;;26.67;;
38629;SDS011;24384;51.988;4.644;2024-03-07T00:45:30;42.38;;;26.30;;
38629;SDS011;24384;51.988;4.644;2024-03-07T00:48:16;47.03;;;27.52;;
38629;SDS011;24384;51.988;4.644;2024-03-07T00:50:52;54.40;;;28.08;;
38629;SDS011;24384;51.988;4.644;2024-03-07T00:53:29;48.15;;;26.67;;
38629;SDS011;24384;51.988;4.644;2024-03-07T00:55:57;47.55;;;25.75;;
38629;SDS011;24384;51.988;4.644;2024-03-07T00:58:32;43.10;;;25.70;;
38629;SDS011;24384;51.988;4.644;2024-03-07T01:01:08;41.60;;;25.63;;
38629;SDS011;24384;51.988;4.644;2024-03-07T01:04:02;40.15;;;25.65;;
38629;SDS011;24384;51.988;4.644;2024-03-07T01:06:45;35.40;;;23.27;;
38629;SDS011;24384;51.988;4.644;2024-03-07T01:09:23;42.72;;;25.00;;
38629;SDS011;24384;51.988;4.644;2024-03-07T01:12:12;44.55;;;25.40;;
38629;SDS011;24384;51.988;4.644;2024-03-07T01:14:55;45.08;;;25.98;;
38629;SDS011;24384;51.988;4.644;2024-03-07T01:17:23;44.42;;;25.35;;
38629;SDS011;24384;51.988;4.644;2024-03-07T01:20:02;42.67;;;26.30;;
38629;SDS011;24384;51.988;4.644;2024-03-07T01:22:40;42.22;;;26.23;;
38629;SDS011;24384;51.988;4.644;2024-03-07T01:25:13;48.58;;;26.83;;
38629;SDS011;24384;51.988;4.644;2024-03-07T01:27:39;45.88;;;26.70;;
38629;SDS011;24384;51.988;4.644;2024-03-07T01:30:05;46.22;;;27.95;;
38629;SDS011;24384;51.988;4.644;2024-03-07T01:32:34;41.50;;;25.75;;
38629;SDS011;24384;51.988;4.644;2024-03-07T01:34:59;42.17;;;24.25;;
38629;SDS011;24384;51.988;4.644;2024-03-07T01:37:25;43.40;;;25.48;;
38629;SDS011;24384;51.988;4.644;2024-03-07T01:39:53;49.08;;;28.83;;
38629;SDS011;24384;51.988;4.644;2024-03-07T01:42:18;46.90;;;28.10;;
38629;SDS011;24384;51.988;4.644;2024-03-07T01:44:43;44.58;;;26.23;;
38629;SDS011;24384;51.988;4.644;2024-03-07T01:47:09;45.38;;;27.05;;
38629;SDS011;24384;51.988;4.644;2024-03-07T01:49:35;48.65;;;28.77;;
38629;SDS011;24384;51.988;4.644;2024-03-07T01:52:03;44.78;;;26.55;;
38629;SDS011;24384;51.988;4.644;2024-03-07T01:54:32;45.58;;;28.25;;
38629;SDS011;24384;51.988;4.644;2024-03-07T01:56:59;43.75;;;27.25;;
38629;SDS011;24384;51.988;4.644;2024-03-07T01:59:26;47.30;;;27.85;;
38629;SDS011;24384;51.988;4.644;2024-03-07T02:01:54;47.90;;;27.15;;
38629;SDS011;24384;51.988;4.644;2024-03-07T02:04:19;46.28;;;27.08;;
38629;SDS011;24384;51.988;4.644;2024-03-07T02:06:45;46.30;;;26.60;;
38629;SDS011;24384;51.988;4.644;2024-03-07T02:09:10;43.20;;;26.98;;
38629;SDS011;24384;51.988;4.644;2024-03-07T02:11:35;49.33;;;27.45;;
38629;SDS011;24384;51.988;4.644;2024-03-07T02:14:03;40.17;;;25.08;;
38629;SDS011;24384;51.988;4.644;2024-03-07T02:16:28;45.95;;;26.63;;
38629;SDS011;24384;51.988;4.644;2024-03-07T02:18:54;45.65;;;27.55;;
38629;SDS011;24384;51.988;4.644;2024-03-07T02:21:22;47.65;;;28.08;;
38629;SDS011;24384;51.988;4.644;2024-03-07T02:23:50;48.38;;;28.05;;
38629;SDS011;24384;51.988;4.644;2024-03-07T02:26:15;50.13;;;27.67;;
38629;SDS011;24384;51.988;4.644;2024-03-07T02:28:42;43.42;;;27.17;;
38629;SDS011;24384;51.988;4.644;2024-03-07T02:31:08;47.42;;;28.08;;
38629;SDS011;24384;51.988;4.644;2024-03-07T02:33:33;44.28;;;27.08;;
38629;SDS011;24384;51.988;4.644;2024-03-07T02:35:58;43.45;;;26.02;;
38629;SDS011;24384;51.988;4.644;2024-03-07T02:38:23;47.47;;;26.27;;
38629;SDS011;24384;51.988;4.644;2024-03-07T02:40:49;39.55;;;24.80;;
38629;SDS011;24384;51.988;4.644;2024-03-07T02:43:14;48.78;;;26.83;;
38629;SDS011;24384;51.988;4.644;2024-03-07T02:45:40;41.40;;;24.35;;
38629;SDS011;24384;51.988;4.644;2024-03-07T02:48:06;49.13;;;25.92;;
38629;SDS011;24384;51.988;4.644;2024-03-07T02:50:36;41.95;;;25.38;;
38629;SDS011;24384;51.988;4.644;2024-03-07T02:53:05;44.63;;;28.30;;
38629;SDS011;24384;51.988;4.644;2024-03-07T02:55:33;46.13;;;27.08;;
38629;SDS011;24384;51.988;4.644;2024-03-07T02:57:59;43.20;;;24.90;;
38629;SDS011;24384;51.988;4.644;2024-03-07T03:00:24;46.30;;;28.00;;
38629;SDS011;24384;51.988;4.644;2024-03-07T03:02:54;45.22;;;26.55;;
38629;SDS011;24384;51.988;4.644;2024-03-07T03:05:20;50.45;;;27.27;;
38629;SDS011;24384;51.988;4.644;2024-03-07T03:07:46;47.45;;;27.10;;
38629;SDS011;24384;51.988;4.644;2024-03-07T03:10:19;48.53;;;27.63;;
38629;SDS011;24384;51.988;4.644;2024-03-07T03:12:57;48.55;;;27.42;;
38629;SDS011;24384;51.988;4.644;2024-03-07T03:15:25;43.90;;;27.30;;
38629;SDS011;24384;51.988;4.644;2024-03-07T03:17:50;47.53;;;26.15;;
38629;SDS011;24384;51.988;4.644;2024-03-07T03:20:16;46.38;;;24.67;;
38629;SDS011;24384;51.988;4.644;2024-03-07T03:22:58;47.67;;;25.58;;
38629;SDS011;24384;51.988;4.644;2024-03-07T03:25:24;42.65;;;26.65;;
38629;SDS011;24384;51.988;4.644;2024-03-07T03:27:51;51.20;;;27.92;;
38629;SDS011;24384;51.988;4.644;2024-03-07T03:30:16;48.33;;;27.15;;
38629;SDS011;24384;51.988;4.644;2024-03-07T03:32:44;45.65;;;26.83;;
38629;SDS011;24384;51.988;4.644;2024-03-07T03:35:12;47.17;;;27.55;;
38629;SDS011;24384;51.988;4.644;2024-03-07T03:37:44;54.92;;;31.35;;
38629;SDS011;24384;51.988;4.644;2024-03-07T03:40:10;50.15;;;28.58;;
38629;SDS011;24384;51.988;4.644;2024-03-07T03:42:38;56.22;;;26.55;;
38629;SDS011;24384;51.988;4.644;2024-03-07T03:45:07;52.83;;;28.08;;
38629;SDS011;24384;51.988;4.644;2024-03-07T03:47:39;45.33;;;27.42;;
38629;SDS011;24384;51.988;4.644;2024-03-07T03:50:05;54.85;;;28.02;;
38629;SDS011;24384;51.988;4.644;2024-03-07T03:52:33;49.63;;;28.15;;
38629;SDS011;24384;51.988;4.644;2024-03-07T03:55:00;51.33;;;29.17;;
38629;SDS011;24384;51.988;4.644;2024-03-07T03:57:26;46.38;;;26.75;;
38629;SDS011;24384;51.988;4.644;2024-03-07T03:59:52;57.63;;;30.00;;
38629;SDS011;24384;51.988;4.644;2024-03-07T04:02:18;47.53;;;28.23;;
38629;SDS011;24384;51.988;4.644;2024-03-07T04:04:44;55.83;;;29.92;;
38629;SDS011;24384;51.988;4.644;2024-03-07T04:07:10;49.00;;;27.70;;
38629;SDS011;24384;51.988;4.644;2024-03-07T04:09:37;55.35;;;31.67;;
38629;SDS011;24384;51.988;4.644;2024-03-07T04:12:03;54.28;;;30.33;;
38629;SDS011;24384;51.988;4.644;2024-03-07T04:14:28;60.70;;;33.70;;
38629;SDS011;24384;51.988;4.644;2024-03-07T04:16:57;60.85;;;33.50;;
38629;SDS011;24384;51.988;4.644;2024-03-07T04:19:23;57.20;;;34.08;;
38629;SDS011;24384;51.988;4.644;2024-03-07T04:21:48;68.70;;;35.63;;
38629;SDS011;24384;51.988;4.644;2024-03-07T04:24:13;54.40;;;33.17;;
38629;SDS011;24384;51.988;4.644;2024-03-07T04:26:41;60.38;;;34.15;;
38629;SDS011;24384;51.988;4.644;2024-03-07T04:29:07;56.20;;;31.13;;
38629;SDS011;24384;51.988;4.644;2024-03-07T04:31:33;54.95;;;31.45;;
38629;SDS011;24384;51.988;4.644;2024-03-07T04:33:59;62.35;;;32.83;;
38629;SDS011;24384;51.988;4.644;2024-03-07T04:36:26;61.60;;;33.97;;
38629;SDS011;24384;51.988;4.644;2024-03-07T04:38:52;62.53;;;32.40;;
38629;SDS011;24384;51.988;4.644;2024-03-07T04:41:17;51.97;;;30.05;;
38629;SDS011;24384;51.988;4.644;2024-03-07T04:43:43;55.83;;;33.47;;
38629;SDS011;24384;51.988;4.644;2024-03-07T04:46:09;55.05;;;33.97;;
38629;SDS011;24384;51.988;4.644;2024-03-07T04:48:34;57.25;;;31.45;;
38629;SDS011;24384;51.988;4.644;2024-03-07T04:50:59;58.10;;;32.88;;
38629;SDS011;24384;51.988;4.644;2024-03-07T04:53:24;55.92;;;34.17;;
38629;SDS011;24384;51.988;4.644;2024-03-07T04:55:50;64.05;;;34.35;;
38629;SDS011;24384;51.988;4.644;2024-03-07T04:58:16;51.38;;;30.27;;
38629;SDS011;24384;51.988;4.644;2024-03-07T05:00:41;49.45;;;27.83;;
38629;SDS011;24384;51.988;4.644;2024-03-07T05:03:06;50.80;;;30.25;;
38629;SDS011;24384;51.988;4.644;2024-03-07T05:05:32;54.58;;;30.48;;
38629;SDS011;24384;51.988;4.644;2024-03-07T05:07:57;52.30;;;29.75;;
38629;SDS011;24384;51.988;4.644;2024-03-07T05:10:22;51.95;;;30.33;;
38629;SDS011;24384;51.988;4.644;2024-03-07T05:12:48;52.35;;;28.60;;
38629;SDS011;24384;51.988;4.644;2024-03-07T05:15:13;55.95;;;29.60;;
38629;SDS011;24384;51.988;4.644;2024-03-07T05:17:38;56.83;;;32.15;;
38629;SDS011;24384;51.988;4.644;2024-03-07T05:20:05;55.83;;;31.17;;
38629;SDS011;24384;51.988;4.644;2024-03-07T05:22:35;55.53;;;29.70;;
38629;SDS011;24384;51.988;4.644;2024-03-07T05:25:05;53.55;;;27.95;;
38629;SDS011;24384;51.988;4.644;2024-03-07T05:27:31;54.33;;;31.75;;
38629;SDS011;24384;51.988;4.644;2024-03-07T05:29:56;53.63;;;29.45;;
38629;SDS011;24384;51.988;4.644;2024-03-07T05:32:23;63.97;;;33.03;;
38629;SDS011;24384;51.988;4.644;2024-03-07T05:34:50;60.13;;;32.55;;
38629;SDS011;24384;51.988;4.644;2024-03-07T05:37:15;52.20;;;28.30;;
38629;SDS011;24384;51.988;4.644;2024-03-07T05:39:41;53.08;;;30.77;;
38629;SDS011;24384;51.988;4.644;2024-03-07T05:42:06;51.40;;;29.33;;
38629;SDS011;24384;51.988;4.644;2024-03-07T05:44:32;57.40;;;32.13;;
38629;SDS011;24384;51.988;4.644;2024-03-07T05:46:57;48.17;;;28.10;;
38629;SDS011;24384;51.988;4.644;2024-03-07T05:49:25;53.22;;;30.25;;
38629;SDS011;24384;51.988;4.644;2024-03-07T05:51:51;59.13;;;33.28;;
38629;SDS011;24384;51.988;4.644;2024-03-07T05:54:16;49.65;;;28.50;;
38629;SDS011;24384;51.988;4.644;2024-03-07T05:56:42;63.30;;;33.00;;
38629;SDS011;24384;51.988;4.644;2024-03-07T05:59:08;56.95;;;30.20;;
38629;SDS011;24384;51.988;4.644;2024-03-07T06:01:34;54.10;;;31.60;;
38629;SDS011;24384;51.988;4.644;2024-03-07T06:04:06;52.97;;;29.15;;
38629;SDS011;24384;51.988;4.644;2024-03-07T06:06:35;56.30;;;30.80;;
38629;SDS011;24384;51.988;4.644;2024-03-07T06:09:01;54.05;;;31.38;;
38629;SDS011;24384;51.988;4.644;2024-03-07T06:11:33;53.60;;;30.48;;
38629;SDS011;24384;51.988;4.644;2024-03-07T06:14:02;52.67;;;29.15;;
38629;SDS011;24384;51.988;4.644;2024-03-07T06:16:36;57.10;;;32.22;;
38629;SDS011;24384;51.988;4.644;2024-03-07T06:19:03;59.38;;;28.67;;
38629;SDS011;24384;51.988;4.644;2024-03-07T06:21:31;57.25;;;29.63;;
38629;SDS011;24384;51.988;4.644;2024-03-07T06:23:57;64.40;;;33.20;;
38629;SDS011;24384;51.988;4.644;2024-03-07T06:26:25;50.65;;;28.77;;
38629;SDS011;24384;51.988;4.644;2024-03-07T06:29:12;58.60;;;32.17;;
38629;SDS011;24384;51.988;4.644;2024-03-07T06:31:44;58.08;;;32.88;;
38629;SDS011;24384;51.988;4.644;2024-03-07T06:34:13;57.03;;;31.83;;
38629;SDS011;24384;51.988;4.644;2024-03-07T06:36:42;48.47;;;29.67;;
38629;SDS011;24384;51.988;4.644;2024-03-07T06:39:08;60.58;;;32.42;;
38629;SDS011;24384;51.988;4.644;2024-03-07T06:41:35;66.00;;;33.78;;
38629;SDS011;24384;51.988;4.644;2024-03-07T06:44:03;57.40;;;32.65;;
38629;SDS011;24384;51.988;4.644;2024-03-07T06:46:28;59.97;;;33.00;;
38629;SDS011;24384;51.988;4.644;2024-03-07T06:48:54;62.95;;;33.20;;
38629;SDS011;24384;51.988;4.644;2024-03-07T06:51:20;62.55;;;34.65;;
38629;SDS011;24384;51.988;4.644;2024-03-07T06:53:49;61.88;;;34.65;;
38629;SDS011;24384;51.988;4.644;2024-03-07T06:56:15;57.28;;;32.58;;
38629;SDS011;24384;51.988;4.644;2024-03-07T06:58:41;54.00;;;31.35;;
38629;SDS011;24384;51.988;4.644;2024-03-07T07:01:08;55.05;;;33.67;;
38629;SDS011;24384;51.988;4.644;2024-03-07T07:03:38;59.08;;;33.08;;
38629;SDS011;24384;51.988;4.644;2024-03-07T07:06:04;59.75;;;33.78;;
38629;SDS011;24384;51.988;4.644;2024-03-07T07:08:32;56.42;;;32.63;;
38629;SDS011;24384;51.988;4.644;2024-03-07T07:10:58;55.50;;;32.20;;
38629;SDS011;24384;51.988;4.644;2024-03-07T07:13:23;55.97;;;32.55;;
38629;SDS011;24384;51.988;4.644;2024-03-07T07:15:51;51.00;;;31.60;;
38629;SDS011;24384;51.988;4.644;2024-03-07T07:18:18;54.72;;;30.35;;
38629;SDS011;24384;51.988;4.644;2024-03-07T07:20:43;55.85;;;31.38;;
38629;SDS011;24384;51.988;4.644;2024-03-07T07:23:09;55.95;;;30.60;;
38629;SDS011;24384;51.988;4.644;2024-03-07T07:25:34;55.58;;;29.80;;
38629;SDS011;24384;51.988;4.644;2024-03-07T07:28:00;48.53;;;29.42;;
38629;SDS011;24384;51.988;4.644;2024-03-07T07:30:27;49.72;;;29.48;;
38629;SDS011;24384;51.988;4.644;2024-03-07T07:32:53;48.33;;;30.63;;
38629;SDS011;24384;51.988;4.644;2024-03-07T07:35:21;49.42;;;29.77;;
38629;SDS011;24384;51.988;4.644;2024-03-07T07:37:48;50.60;;;28.60;;
38629;SDS011;24384;51.988;4.644;2024-03-07T07:40:18;45.78;;;28.55;;
38629;SDS011;24384;51.988;4.644;2024-03-07T07:42:45;51.92;;;29.77;;
38629;SDS011;24384;51.988;4.644;2024-03-07T07:45:14;46.00;;;27.90;;
38629;SDS011;24384;51.988;4.644;2024-03-07T07:50:15;48.92;;;29.50;;
38629;SDS011;24384;51.988;4.644;2024-03-07T07:52:50;53.75;;;29.65;;
38629;SDS011;24384;51.988;4.644;2024-03-07T07:55:19;46.28;;;28.58;;
38629;SDS011;24384;51.988;4.644;2024-03-07T07:57:48;50.25;;;29.35;;
38629;SDS011;24384;51.988;4.644;2024-03-07T08:00:17;44.00;;;28.00;;
38629;SDS011;24384;51.988;4.644;2024-03-07T08:02:55;52.90;;;30.50;;
38629;SDS011;24384;51.988;4.644;2024-03-07T08:05:32;46.58;;;29.73;;
38629;SDS011;24384;51.988;4.644;2024-03-07T08:07:59;43.80;;;26.75;;
38629;SDS011;24384;51.988;4.644;2024-03-07T08:10:29;42.45;;;25.95;;
38629;SDS011;24384;51.988;4.644;2024-03-07T08:12:55;45.65;;;28.00;;
38629;SDS011;24384;51.988;4.644;2024-03-07T08:15:22;45.05;;;28.08;;
38629;SDS011;24384;51.988;4.644;2024-03-07T08:17:48;43.25;;;26.80;;
38629;SDS011;24384;51.988;4.644;2024-03-07T08:20:15;41.22;;;25.92;;
38629;SDS011;24384;51.988;4.644;2024-03-07T08:22:43;40.67;;;25.95;;
38629;SDS011;24384;51.988;4.644;2024-03-07T08:25:13;44.10;;;26.33;;
38629;SDS011;24384;51.988;4.644;2024-03-07T08:27:40;45.33;;;26.48;;
38629;SDS011;24384;51.988;4.644;2024-03-07T08:30:07;40.83;;;25.00;;
38629;SDS011;24384;51.988;4.644;2024-03-07T08:32:36;41.78;;;24.42;;
38629;SDS011;24384;51.988;4.644;2024-03-07T08:35:02;43.92;;;25.13;;
38629;SDS011;24384;51.988;4.644;2024-03-07T08:37:31;41.83;;;26.40;;
38629;SDS011;24384;51.988;4.644;2024-03-07T08:40:10;40.10;;;24.48;;
38629;SDS011;24384;51.988;4.644;2024-03-07T08:42:39;38.03;;;24.92;;
38629;SDS011;24384;51.988;4.644;2024-03-07T08:45:07;37.83;;;23.75;;
38629;SDS011;24384;51.988;4.644;2024-03-07T08:47:35;39.17;;;24.38;;
38629;SDS011;24384;51.988;4.644;2024-03-07T08:50:01;38.13;;;24.77;;
38629;SDS011;24384;51.988;4.644;2024-03-07T08:52:34;39.25;;;24.75;;
38629;SDS011;24384;51.988;4.644;2024-03-07T08:55:04;34.78;;;22.98;;
38629;SDS011;24384;51.988;4.644;2024-03-07T08:57:37;36.40;;;22.50;;
38629;SDS011;24384;51.988;4.644;2024-03-07T09:00:03;31.50;;;22.52;;
38629;SDS011;24384;51.988;4.644;2024-03-07T09:03:16;32.05;;;22.05;;
38629;SDS011;24384;51.988;4.644;2024-03-07T09:05:47;32.92;;;21.58;;
38629;SDS011;24384;51.988;4.644;2024-03-07T09:08:15;31.48;;;22.15;;
38629;SDS011;24384;51.988;4.644;2024-03-07T09:10:43;31.50;;;21.65;;
38629;SDS011;24384;51.988;4.644;2024-03-07T09:13:09;35.40;;;22.23;;
38629;SDS011;24384;51.988;4.644;2024-03-07T09:15:34;37.75;;;21.00;;
38629;SDS011;24384;51.988;4.644;2024-03-07T09:18:01;26.60;;;19.02;;
38629;SDS011;24384;51.988;4.644;2024-03-07T09:20:28;30.30;;;19.80;;
38629;SDS011;24384;51.988;4.644;2024-03-07T09:22:53;28.98;;;20.23;;
38629;SDS011;24384;51.988;4.644;2024-03-07T09:25:19;29.13;;;19.50;;
38629;SDS011;24384;51.988;4.644;2024-03-07T09:27:45;26.48;;;18.58;;
38629;SDS011;24384;51.988;4.644;2024-03-07T09:30:10;29.55;;;20.02;;
38629;SDS011;24384;51.988;4.644;2024-03-07T09:32:46;27.58;;;18.40;;
38629;SDS011;24384;51.988;4.644;2024-03-07T09:35:13;29.45;;;18.90;;
38629;SDS011;24384;51.988;4.644;2024-03-07T09:37:42;24.13;;;16.95;;
38629;SDS011;24384;51.988;4.644;2024-03-07T09:40:08;23.25;;;16.33;;
38629;SDS011;24384;51.988;4.644;2024-03-07T09:42:37;25.70;;;16.73;;
38629;SDS011;24384;51.988;4.644;2024-03-07T09:45:13;22.33;;;14.95;;
38629;SDS011;24384;51.988;4.644;2024-03-07T09:47:43;29.35;;;16.08;;
38629;SDS011;24384;51.988;4.644;2024-03-07T09:50:11;18.65;;;14.63;;
38629;SDS011;24384;51.988;4.644;2024-03-07T09:52:38;23.08;;;14.70;;
38629;SDS011;24384;51.988;4.644;2024-03-07T09:55:04;25.13;;;15.65;;
38629;SDS011;24384;51.988;4.644;2024-03-07T09:57:31;23.88;;;14.70;;
38629;SDS011;24384;51.988;4.644;2024-03-07T10:00:01;19.33;;;14.07;;
38629;SDS011;24384;51.988;4.644;2024-03-07T10:02:27;18.67;;;13.30;;
38629;SDS011;24384;51.988;4.644;2024-03-07T10:04:57;19.95;;;14.10;;
38629;SDS011;24384;51.988;4.644;2024-03-07T10:07:22;20.05;;;14.10;;
38629;SDS011;24384;51.988;4.644;2024-03-07T10:09:48;18.27;;;13.82;;
38629;SDS011;24384;51.988;4.644;2024-03-07T10:12:16;16.75;;;13.25;;
38629;SDS011;24384;51.988;4.644;2024-03-07T10:17:37;15.20;;;13.00;;
38629;SDS011;24384;51.988;4.644;2024-03-07T10:20:04;18.42;;;12.82;;
38629;SDS011;24384;51.988;4.644;2024-03-07T10:22:35;18.45;;;11.93;;
38629;SDS011;24384;51.988;4.644;2024-03-07T10:25:01;15.98;;;12.27;;
38629;SDS011;24384;51.988;4.644;2024-03-07T10:27:28;17.05;;;12.00;;
38629;SDS011;24384;51.988;4.644;2024-03-07T10:29:54;16.73;;;12.40;;
38629;SDS011;24384;51.988;4.644;2024-03-07T10:32:20;17.83;;;12.98;;
38629;SDS011;24384;51.988;4.644;2024-03-07T10:34:49;15.60;;;12.10;;
38629;SDS011;24384;51.988;4.644;2024-03-07T10:37:15;20.30;;;13.80;;
38629;SDS011;24384;51.988;4.644;2024-03-07T10:39:44;20.48;;;13.65;;
38629;SDS011;24384;51.988;4.644;2024-03-07T10:42:14;15.88;;;12.02;;
38629;SDS011;24384;51.988;4.644;2024-03-07T10:44:43;17.33;;;13.88;;
38629;SDS011;24384;51.988;4.644;2024-03-07T10:47:11;19.17;;;13.85;;
38629;SDS011;24384;51.988;4.644;2024-03-07T10:49:50;20.60;;;14.45;;
38629;SDS011;24384;51.988;4.644;2024-03-07T10:52:43;22.80;;;13.00;;
38629;SDS011;24384;51.988;4.644;2024-03-07T11:01:45;17.67;;;12.75;;
38629;SDS011;24384;51.988;4.644;2024-03-07T11:04:21;17.45;;;13.32;;
38629;SDS011;24384;51.988;4.644;2024-03-07T11:06:47;18.90;;;13.25;;
38629;SDS011;24384;51.988;4.644;2024-03-07T11:09:14;18.05;;;13.27;;
38629;SDS011;24384;51.988;4.644;2024-03-07T11:11:47;21.75;;;12.77;;
38629;SDS011;24384;51.988;4.644;2024-03-07T11:14:13;18.88;;;13.88;;
38629;SDS011;24384;51.988;4.644;2024-03-07T11:16:41;18.65;;;13.45;;
38629;SDS011;24384;51.988;4.644;2024-03-07T11:21:49;16.23;;;13.60;;
38629;SDS011;24384;51.988;4.644;2024-03-07T11:24:28;14.88;;;11.52;;
38629;SDS011;24384;51.988;4.644;2024-03-07T11:26:55;18.15;;;13.85;;
38629;SDS011;24384;51.988;4.644;2024-03-07T11:32:11;19.27;;;13.65;;
38629;SDS011;24384;51.988;4.644;2024-03-07T11:34:40;16.65;;;13.30;;
38629;SDS011;24384;51.988;4.644;2024-03-07T11:37:07;19.33;;;13.48;;
38629;SDS011;24384;51.988;4.644;2024-03-07T11:39:46;18.45;;;12.48;;
38629;SDS011;24384;51.988;4.644;2024-03-07T11:42:19;16.40;;;13.85;;
38629;SDS011;24384;51.988;4.644;2024-03-07T11:44:48;13.93;;;12.02;;
38629;SDS011;24384;51.988;4.644;2024-03-07T11:47:14;15.85;;;12.65;;
38629;SDS011;24384;51.988;4.644;2024-03-07T11:49:41;16.13;;;12.38;;
38629;SDS011;24384;51.988;4.644;2024-03-07T11:52:06;14.35;;;11.30;;
38629;SDS011;24384;51.988;4.644;2024-03-07T11:54:38;13.85;;;12.20;;
38629;SDS011;24384;51.988;4.644;2024-03-07T11:57:07;14.10;;;12.05;;
38629;SDS011;24384;51.988;4.644;2024-03-07T11:59:38;15.75;;;11.88;;
38629;SDS011;24384;51.988;4.644;2024-03-07T12:02:09;13.57;;;11.43;;
38629;SDS011;24384;51.988;4.644;2024-03-07T12:04:35;15.60;;;13.00;;
38629;SDS011;24384;51.988;4.644;2024-03-07T12:07:00;12.82;;;11.43;;
38629;SDS011;24384;51.988;4.644;2024-03-07T12:09:26;14.85;;;11.73;;
38629;SDS011;24384;51.988;4.644;2024-03-07T12:11:51;14.38;;;11.40;;
38629;SDS011;24384;51.988;4.644;2024-03-07T12:14:21;13.18;;;11.45;;
38629;SDS011;24384;51.988;4.644;2024-03-07T12:16:46;13.23;;;11.05;;
38629;SDS011;24384;51.988;4.644;2024-03-07T12:19:12;17.42;;;11.35;;
38629;SDS011;24384;51.988;4.644;2024-03-07T12:21:39;18.42;;;12.32;;
38629;SDS011;24384;51.988;4.644;2024-03-07T12:24:12;17.67;;;11.77;;
38629;SDS011;24384;51.988;4.644;2024-03-07T12:26:38;15.68;;;12.80;;
38629;SDS011;24384;51.988;4.644;2024-03-07T12:29:10;15.05;;;13.02;;
38629;SDS011;24384;51.988;4.644;2024-03-07T12:31:37;20.73;;;13.30;;
38629;SDS011;24384;51.988;4.644;2024-03-07T12:34:08;17.95;;;13.45;;
38629;SDS011;24384;51.988;4.644;2024-03-07T12:36:37;18.33;;;13.45;;
38629;SDS011;24384;51.988;4.644;2024-03-07T12:39:21;15.68;;;12.85;;
38629;SDS011;24384;51.988;4.644;2024-03-07T12:41:51;18.10;;;14.02;;
38629;SDS011;24384;51.988;4.644;2024-03-07T12:44:21;18.63;;;14.55;;
38629;SDS011;24384;51.988;4.644;2024-03-07T12:46:52;18.38;;;14.35;;
38629;SDS011;24384;51.988;4.644;2024-03-07T12:49:24;17.95;;;14.43;;
38629;SDS011;24384;51.988;4.644;2024-03-07T12:51:55;18.45;;;14.32;;
38629;SDS011;24384;51.988;4.644;2024-03-07T12:54:22;18.27;;;14.45;;
38629;SDS011;24384;51.988;4.644;2024-03-07T12:56:47;15.70;;;13.57;;
38629;SDS011;24384;51.988;4.644;2024-03-07T12:59:15;18.48;;;14.50;;
38629;SDS011;24384;51.988;4.644;2024-03-07T13:01:41;17.38;;;13.77;;
38629;SDS011;24384;51.988;4.644;2024-03-07T13:04:10;20.75;;;14.77;;
38629;SDS011;24384;51.988;4.644;2024-03-07T13:06:36;18.55;;;14.02;;
38629;SDS011;24384;51.988;4.644;2024-03-07T13:09:01;17.38;;;14.00;;
38629;SDS011;24384;51.988;4.644;2024-03-07T13:11:28;17.05;;;14.00;;
38629;SDS011;24384;51.988;4.644;2024-03-07T13:13:56;18.92;;;14.32;;
38629;SDS011;24384;51.988;4.644;2024-03-07T13:16:22;18.92;;;13.80;;
38629;SDS011;24384;51.988;4.644;2024-03-07T13:18:52;21.52;;;15.30;;
38629;SDS011;24384;51.988;4.644;2024-03-07T13:21:19;19.98;;;15.18;;
38629;SDS011;24384;51.988;4.644;2024-03-07T13:23:45;22.20;;;15.18;;
38629;SDS011;24384;51.988;4.644;2024-03-07T13:26:10;28.98;;;15.73;;
38629;SDS011;24384;51.988;4.644;2024-03-07T13:28:41;19.30;;;14.98;;
38629;SDS011;24384;51.988;4.644;2024-03-07T13:31:10;19.02;;;14.30;;
38629;SDS011;24384;51.988;4.644;2024-03-07T13:33:42;21.90;;;15.77;;
38629;SDS011;24384;51.988;4.644;2024-03-07T13:36:12;22.88;;;14.02;;
38629;SDS011;24384;51.988;4.644;2024-03-07T13:38:39;24.15;;;14.18;;
38629;SDS011;24384;51.988;4.644;2024-03-07T13:41:05;21.75;;;15.68;;
38629;SDS011;24384;51.988;4.644;2024-03-07T13:43:31;19.70;;;14.65;;
38629;SDS011;24384;51.988;4.644;2024-03-07T13:45:59;18.45;;;14.05;;
38629;SDS011;24384;51.988;4.644;2024-03-07T13:48:25;22.08;;;14.57;;
38629;SDS011;24384;51.988;4.644;2024-03-07T13:50:50;18.42;;;14.40;;
38629;SDS011;24384;51.988;4.644;2024-03-07T13:53:17;21.30;;;15.20;;
38629;SDS011;24384;51.988;4.644;2024-03-07T14:16:03;19.67;;;13.68;;
38629;SDS011;24384;51.988;4.644;2024-03-07T14:24:46;21.60;;;12.52;;
38629;SDS011;24384;51.988;4.644;2024-03-07T14:33:08;23.25;;;12.85;;
38629;SDS011;24384;51.988;4.644;2024-03-07T14:35:39;14.52;;;10.82;;
38629;SDS011;24384;51.988;4.644;2024-03-07T14:41:16;19.15;;;12.13;;
38629;SDS011;24384;51.988;4.644;2024-03-07T14:43:45;18.77;;;11.88;;
38629;SDS011;24384;51.988;4.644;2024-03-07T14:46:14;17.90;;;11.88;;
38629;SDS011;24384;51.988;4.644;2024-03-07T14:48:40;18.83;;;12.27;;
38629;SDS011;24384;51.988;4.644;2024-03-07T14:51:07;17.90;;;11.73;;
38629;SDS011;24384;51.988;4.644;2024-03-07T14:53:34;16.58;;;11.57;;
38629;SDS011;24384;51.988;4.644;2024-03-07T14:55:59;18.23;;;12.20;;
38629;SDS011;24384;51.988;4.644;2024-03-07T14:58:26;21.13;;;12.65;;
38629;SDS011;24384;51.988;4.644;2024-03-07T15:00:51;16.42;;;11.48;;
38629;SDS011;24384;51.988;4.644;2024-03-07T15:03:19;15.05;;;10.82;;
38629;SDS011;24384;51.988;4.644;2024-03-07T15:05:45;14.15;;;10.68;;
38629;SDS011;24384;51.988;4.644;2024-03-07T15:08:11;17.10;;;11.48;;
38629;SDS011;24384;51.988;4.644;2024-03-07T15:10:37;16.48;;;11.40;;
38629;SDS011;24384;51.988;4.644;2024-03-07T15:13:10;16.83;;;10.82;;
38629;SDS011;24384;51.988;4.644;2024-03-07T15:15:40;13.82;;;10.43;;
38629;SDS011;24384;51.988;4.644;2024-03-07T15:18:08;15.93;;;11.45;;
38629;SDS011;24384;51.988;4.644;2024-03-07T15:20:34;15.98;;;10.98;;
38629;SDS011;24384;51.988;4.644;2024-03-07T15:23:01;16.67;;;12.00;;
38629;SDS011;24384;51.988;4.644;2024-03-07T15:25:31;25.33;;;11.88;;